sensor_id;sensor_type;location;lat;lon;timestamp;temperature;humidity
22532;DHT22;11432;46.924;7.114;2023-02-01T00:01:42;1.30;1.00
22532;DHT22;11432;46.924;7.114;2023-02-01T00:04:08;1.30;1.00
22532;DHT22;11432;46.924;7.114;2023-02-01T00:06:33;1.30;1.00
22532;DHT22;11432;46.924;7.114;2023-02-01T00:08:59;1.40;1.00
22532;DHT22;11432;46.924;7.114;2023-02-01T00:11:25;1.50;1.00
22532;DHT22;11432;46.924;7.114;2023-02-01T00:13:51;1.50;1.00
22532;DHT22;11432;46.924;7.114;2023-02-01T00:16:22;1.50;1.00
22532;DHT22;11432;46.924;7.114;2023-02-01T00:18:50;1.60;1.00
22532;DHT22;11432;46.924;7.114;2023-02-01T00:21:17;1.60;1.00
22532;DHT22;11432;46.924;7.114;2023-02-01T00:23:43;1.60;1.00
22532;DHT22;11432;46.924;7.114;2023-02-01T00:26:14;1.60;1.00
22532;DHT22;11432;46.924;7.114;2023-02-01T00:28:40;1.60;1.00
22532;DHT22;11432;46.924;7.114;2023-02-01T00:31:06;1.60;1.00
22532;DHT22;11432;46.924;7.114;2023-02-01T00:33:32;1.60;1.00
22532;DHT22;11432;46.924;7.114;2023-02-01T00:35:59;1.60;1.00
22532;DHT22;11432;46.924;7.114;2023-02-01T00:38:26;1.60;1.00
22532;DHT22;11432;46.924;7.114;2023-02-01T00:40:52;1.50;1.00
22532;DHT22;11432;46.924;7.114;2023-02-01T00:43:18;1.40;1.00
22532;DHT22;11432;46.924;7.114;2023-02-01T00:45:45;1.30;1.00
22532;DHT22;11432;46.924;7.114;2023-02-01T00:48:11;1.30;1.00
22532;DHT22;11432;46.924;7.114;2023-02-01T00:50:41;1.20;1.00
22532;DHT22;11432;46.924;7.114;2023-02-01T00:53:08;1.20;1.00
22532;DHT22;11432;46.924;7.114;2023-02-01T00:55:34;1.20;1.00
22532;DHT22;11432;46.924;7.114;2023-02-01T00:57:59;1.20;1.00
22532;DHT22;11432;46.924;7.114;2023-02-01T01:00:25;1.20;1.00
22532;DHT22;11432;46.924;7.114;2023-02-01T01:02:51;1.20;1.00
22532;DHT22;11432;46.924;7.114;2023-02-01T01:05:16;1.30;1.00
22532;DHT22;11432;46.924;7.114;2023-02-01T01:07:42;1.40;1.00
22532;DHT22;11432;46.924;7.114;2023-02-01T01:10:08;1.50;1.00
22532;DHT22;11432;46.924;7.114;2023-02-01T01:12:34;1.40;1.00
22532;DHT22;11432;46.924;7.114;2023-02-01T01:14:59;1.50;1.00
22532;DHT22;11432;46.924;7.114;2023-02-01T01:17:25;1.50;1.00
22532;DHT22;11432;46.924;7.114;2023-02-01T01:19:50;1.60;1.00
22532;DHT22;11432;46.924;7.114;2023-02-01T01:22:16;1.50;1.00
22532;DHT22;11432;46.924;7.114;2023-02-01T01:24:43;1.40;1.00
22532;DHT22;11432;46.924;7.114;2023-02-01T01:27:09;1.30;1.00
22532;DHT22;11432;46.924;7.114;2023-02-01T01:29:34;1.10;1.00
22532;DHT22;11432;46.924;7.114;2023-02-01T01:32:00;1.00;1.00
22532;DHT22;11432;46.924;7.114;2023-02-01T01:34:25;0.80;1.00
22532;DHT22;11432;46.924;7.114;2023-02-01T01:36:51;0.80;1.00
22532;DHT22;11432;46.924;7.114;2023-02-01T01:39:17;0.70;1.00
22532;DHT22;11432;46.924;7.114;2023-02-01T01:41:42;0.70;1.00
22532;DHT22;11432;46.924;7.114;2023-02-01T01:47:12;0.60;33.60
22532;DHT22;11432;46.924;7.114;2023-02-01T01:49:39;0.60;99.90
22532;DHT22;11432;46.924;7.114;2023-02-01T01:52:05;0.60;99.90
22532;DHT22;11432;46.924;7.114;2023-02-01T01:54:35;0.60;99.90
22532;DHT22;11432;46.924;7.114;2023-02-01T01:57:06;0.50;99.90
22532;DHT22;11432;46.924;7.114;2023-02-01T01:59:35;0.50;99.90
22532;DHT22;11432;46.924;7.114;2023-02-01T02:02:02;0.40;99.90
22532;DHT22;11432;46.924;7.114;2023-02-01T02:04:28;0.30;99.90
22532;DHT22;11432;46.924;7.114;2023-02-01T02:07:08;0.30;99.90
22532;DHT22;11432;46.924;7.114;2023-02-01T02:09:35;0.20;99.90
22532;DHT22;11432;46.924;7.114;2023-02-01T02:12:01;0.20;99.90
22532;DHT22;11432;46.924;7.114;2023-02-01T02:14:26;0.20;99.90
22532;DHT22;11432;46.924;7.114;2023-02-01T02:39:17;0.10;99.90
22532;DHT22;11432;46.924;7.114;2023-02-01T02:50:58;0.00;99.90
22532;DHT22;11432;46.924;7.114;2023-02-01T02:54:08;0.00;99.90
22532;DHT22;11432;46.924;7.114;2023-02-01T02:56:56;0.00;99.90
22532;DHT22;11432;46.924;7.114;2023-02-01T02:59:43;0.00;99.90
22532;DHT22;11432;46.924;7.114;2023-02-01T03:02:28;0.00;99.90
22532;DHT22;11432;46.924;7.114;2023-02-01T03:05:13;0.00;99.90
22532;DHT22;11432;46.924;7.114;2023-02-01T03:08:02;0.00;99.90
22532;DHT22;11432;46.924;7.114;2023-02-01T03:16:00;0.00;99.90
22532;DHT22;11432;46.924;7.114;2023-02-01T03:18:36;0.00;99.90
22532;DHT22;11432;46.924;7.114;2023-02-01T03:21:10;-0.10;99.90
22532;DHT22;11432;46.924;7.114;2023-02-01T03:23:37;-0.10;99.90
22532;DHT22;11432;46.924;7.114;2023-02-01T03:26:07;-0.10;99.90
22532;DHT22;11432;46.924;7.114;2023-02-01T03:28:36;-0.20;99.90
22532;DHT22;11432;46.924;7.114;2023-02-01T03:31:02;-0.10;99.90
22532;DHT22;11432;46.924;7.114;2023-02-01T03:33:29;-0.10;99.90
22532;DHT22;11432;46.924;7.114;2023-02-01T03:36:19;-0.10;99.90
22532;DHT22;11432;46.924;7.114;2023-02-01T03:41:35;-0.10;99.90
22532;DHT22;11432;46.924;7.114;2023-02-01T03:44:29;-0.10;99.90
22532;DHT22;11432;46.924;7.114;2023-02-01T03:49:40;-0.20;99.90
22532;DHT22;11432;46.924;7.114;2023-02-01T03:52:11;-0.20;99.90
22532;DHT22;11432;46.924;7.114;2023-02-01T03:54:38;-0.20;99.90
22532;DHT22;11432;46.924;7.114;2023-02-01T03:57:07;-0.20;99.90
22532;DHT22;11432;46.924;7.114;2023-02-01T03:59:39;-0.20;99.90
22532;DHT22;11432;46.924;7.114;2023-02-01T04:02:04;-0.20;99.90
22532;DHT22;11432;46.924;7.114;2023-02-01T04:04:30;-0.30;99.90
22532;DHT22;11432;46.924;7.114;2023-02-01T04:06:56;-0.30;99.90
22532;DHT22;11432;46.924;7.114;2023-02-01T04:09:21;-0.30;99.90
22532;DHT22;11432;46.924;7.114;2023-02-01T04:11:47;-0.30;99.90
22532;DHT22;11432;46.924;7.114;2023-02-01T04:14:13;-0.30;99.90
22532;DHT22;11432;46.924;7.114;2023-02-01T04:16:38;-0.30;99.90
22532;DHT22;11432;46.924;7.114;2023-02-01T04:19:04;-0.20;99.90
22532;DHT22;11432;46.924;7.114;2023-02-01T04:21:29;-0.10;99.90
22532;DHT22;11432;46.924;7.114;2023-02-01T04:23:55;-0.10;99.90
22532;DHT22;11432;46.924;7.114;2023-02-01T04:26:20;0.00;99.90
22532;DHT22;11432;46.924;7.114;2023-02-01T04:28:47;0.00;99.90
22532;DHT22;11432;46.924;7.114;2023-02-01T04:31:16;-0.10;99.90
22532;DHT22;11432;46.924;7.114;2023-02-01T04:33:42;-0.20;99.90
22532;DHT22;11432;46.924;7.114;2023-02-01T04:36:09;-0.20;99.90
22532;DHT22;11432;46.924;7.114;2023-02-01T04:38:35;-0.20;99.90
22532;DHT22;11432;46.924;7.114;2023-02-01T04:41:00;-0.20;99.90
22532;DHT22;11432;46.924;7.114;2023-02-01T04:43:26;-0.10;99.90
22532;DHT22;11432;46.924;7.114;2023-02-01T04:45:52;-0.10;99.90
22532;DHT22;11432;46.924;7.114;2023-02-01T04:48:20;0.10;99.90
22532;DHT22;11432;46.924;7.114;2023-02-01T04:50:46;0.20;99.90
22532;DHT22;11432;46.924;7.114;2023-02-01T04:53:16;0.20;99.90
22532;DHT22;11432;46.924;7.114;2023-02-01T04:55:43;0.30;99.90
22532;DHT22;11432;46.924;7.114;2023-02-01T04:58:09;0.30;99.90
22532;DHT22;11432;46.924;7.114;2023-02-01T05:00:36;0.30;99.90
22532;DHT22;11432;46.924;7.114;2023-02-01T05:03:02;0.40;99.90
22532;DHT22;11432;46.924;7.114;2023-02-01T05:05:28;0.40;99.90
22532;DHT22;11432;46.924;7.114;2023-02-01T05:07:54;0.30;90.30
22532;DHT22;11432;46.924;7.114;2023-02-01T05:10:20;0.30;95.90
22532;DHT22;11432;46.924;7.114;2023-02-01T05:12:46;0.30;99.90
22532;DHT22;11432;46.924;7.114;2023-02-01T05:15:30;0.30;99.90
22532;DHT22;11432;46.924;7.114;2023-02-01T05:17:56;0.40;99.90
22532;DHT22;11432;46.924;7.114;2023-02-01T05:20:22;0.40;99.70
22532;DHT22;11432;46.924;7.114;2023-02-01T05:22:48;0.40;98.60
22532;DHT22;11432;46.924;7.114;2023-02-01T05:25:14;0.50;93.70
22532;DHT22;11432;46.924;7.114;2023-02-01T05:27:39;0.50;92.00
22532;DHT22;11432;46.924;7.114;2023-02-01T05:30:06;0.50;88.00
22532;DHT22;11432;46.924;7.114;2023-02-01T05:32:32;0.50;79.30
22532;DHT22;11432;46.924;7.114;2023-02-01T05:34:58;0.50;59.50
22532;DHT22;11432;46.924;7.114;2023-02-01T05:37:24;0.60;55.70
22532;DHT22;11432;46.924;7.114;2023-02-01T05:39:49;0.60;51.50
22532;DHT22;11432;46.924;7.114;2023-02-01T05:42:15;0.60;40.30
22532;DHT22;11432;46.924;7.114;2023-02-01T05:44:41;0.70;27.30
22532;DHT22;11432;46.924;7.114;2023-02-01T05:47:06;0.70;24.70
22532;DHT22;11432;46.924;7.114;2023-02-01T05:49:32;0.70;19.60
22532;DHT22;11432;46.924;7.114;2023-02-01T05:51:58;0.70;20.50
22532;DHT22;11432;46.924;7.114;2023-02-01T05:54:23;0.70;25.50
22532;DHT22;11432;46.924;7.114;2023-02-01T05:56:49;0.60;31.80
22532;DHT22;11432;46.924;7.114;2023-02-01T05:59:14;0.60;42.20
22532;DHT22;11432;46.924;7.114;2023-02-01T06:01:40;0.60;53.10
22532;DHT22;11432;46.924;7.114;2023-02-01T06:04:06;0.50;54.10
22532;DHT22;11432;46.924;7.114;2023-02-01T06:06:31;0.60;85.90
22532;DHT22;11432;46.924;7.114;2023-02-01T06:08:57;0.60;80.40
22532;DHT22;11432;46.924;7.114;2023-02-01T06:11:23;0.70;63.60
22532;DHT22;11432;46.924;7.114;2023-02-01T06:13:48;0.70;47.10
22532;DHT22;11432;46.924;7.114;2023-02-01T06:16:14;0.70;49.40
22532;DHT22;11432;46.924;7.114;2023-02-01T06:18:41;0.60;28.60
22532;DHT22;11432;46.924;7.114;2023-02-01T06:21:07;0.60;35.80
22532;DHT22;11432;46.924;7.114;2023-02-01T06:23:34;0.70;33.50
22532;DHT22;11432;46.924;7.114;2023-02-01T06:26:05;0.70;31.80
22532;DHT22;11432;46.924;7.114;2023-02-01T06:28:32;0.70;35.70
22532;DHT22;11432;46.924;7.114;2023-02-01T06:30:58;0.70;33.20
22532;DHT22;11432;46.924;7.114;2023-02-01T06:33:27;0.70;36.20
22532;DHT22;11432;46.924;7.114;2023-02-01T06:35:57;0.80;38.50
22532;DHT22;11432;46.924;7.114;2023-02-01T06:38:24;0.80;32.20
22532;DHT22;11432;46.924;7.114;2023-02-01T06:40:54;0.80;31.10
22532;DHT22;11432;46.924;7.114;2023-02-01T06:43:21;0.80;28.40
22532;DHT22;11432;46.924;7.114;2023-02-01T06:45:46;0.90;36.10
22532;DHT22;11432;46.924;7.114;2023-02-01T06:48:12;0.90;62.30
22532;DHT22;11432;46.924;7.114;2023-02-01T06:50:37;0.90;99.90
22532;DHT22;11432;46.924;7.114;2023-02-01T06:53:03;0.90;99.90
22532;DHT22;11432;46.924;7.114;2023-02-01T06:55:29;0.90;99.90
22532;DHT22;11432;46.924;7.114;2023-02-01T06:57:55;0.90;99.90
22532;DHT22;11432;46.924;7.114;2023-02-01T07:00:22;0.90;99.90
22532;DHT22;11432;46.924;7.114;2023-02-01T07:02:47;0.90;99.90
22532;DHT22;11432;46.924;7.114;2023-02-01T07:05:13;0.80;99.90
22532;DHT22;11432;46.924;7.114;2023-02-01T07:07:39;0.80;99.90
22532;DHT22;11432;46.924;7.114;2023-02-01T07:10:05;0.70;99.90
22532;DHT22;11432;46.924;7.114;2023-02-01T07:12:30;0.70;99.90
22532;DHT22;11432;46.924;7.114;2023-02-01T07:14:56;0.70;99.90
22532;DHT22;11432;46.924;7.114;2023-02-01T07:17:22;0.60;99.90
22532;DHT22;11432;46.924;7.114;2023-02-01T07:19:48;0.60;99.90
22532;DHT22;11432;46.924;7.114;2023-02-01T07:22:16;0.60;99.90
22532;DHT22;11432;46.924;7.114;2023-02-01T07:24:42;0.70;99.90
22532;DHT22;11432;46.924;7.114;2023-02-01T07:27:08;0.80;99.90
22532;DHT22;11432;46.924;7.114;2023-02-01T07:29:33;0.80;99.90
22532;DHT22;11432;46.924;7.114;2023-02-01T07:31:59;0.90;99.90
22532;DHT22;11432;46.924;7.114;2023-02-01T07:34:25;0.90;99.90
22532;DHT22;11432;46.924;7.114;2023-02-01T07:36:51;1.00;99.90
22532;DHT22;11432;46.924;7.114;2023-02-01T07:39:16;1.10;99.90
22532;DHT22;11432;46.924;7.114;2023-02-01T07:41:42;1.10;99.90
22532;DHT22;11432;46.924;7.114;2023-02-01T07:46:04;1.10;99.90
22532;DHT22;11432;46.924;7.114;2023-02-01T07:48:31;1.70;99.90
22532;DHT22;11432;46.924;7.114;2023-02-01T07:51:09;2.50;99.90
22532;DHT22;11432;46.924;7.114;2023-02-01T07:53:35;2.40;1.00
22532;DHT22;11432;46.924;7.114;2023-02-01T07:56:02;2.20;1.00
22532;DHT22;11432;46.924;7.114;2023-02-01T08:00:16;2.10;1.00
22532;DHT22;11432;46.924;7.114;2023-02-01T08:03:01;2.10;1.00
22532;DHT22;11432;46.924;7.114;2023-02-01T08:05:28;2.20;1.00
22532;DHT22;11432;46.924;7.114;2023-02-01T08:07:54;2.20;1.00
22532;DHT22;11432;46.924;7.114;2023-02-01T08:10:19;2.30;1.00
22532;DHT22;11432;46.924;7.114;2023-02-01T08:12:45;2.40;1.00
22532;DHT22;11432;46.924;7.114;2023-02-01T08:15:16;2.50;99.90
22532;DHT22;11432;46.924;7.114;2023-02-01T08:17:48;2.50;99.90
22532;DHT22;11432;46.924;7.114;2023-02-01T08:20:14;2.40;66.90
22532;DHT22;11432;46.924;7.114;2023-02-01T08:22:40;2.40;67.90
22532;DHT22;11432;46.924;7.114;2023-02-01T08:25:06;2.40;99.90
22532;DHT22;11432;46.924;7.114;2023-02-01T08:27:35;2.40;99.90
22532;DHT22;11432;46.924;7.114;2023-02-01T08:30:01;2.50;99.90
22532;DHT22;11432;46.924;7.114;2023-02-01T08:32:27;2.40;99.90
22532;DHT22;11432;46.924;7.114;2023-02-01T08:34:52;2.40;99.90
22532;DHT22;11432;46.924;7.114;2023-02-01T08:37:18;2.40;99.90
22532;DHT22;11432;46.924;7.114;2023-02-01T08:39:43;2.40;99.90
22532;DHT22;11432;46.924;7.114;2023-02-01T08:42:10;2.50;99.90
22532;DHT22;11432;46.924;7.114;2023-02-01T08:44:55;2.50;99.90
22532;DHT22;11432;46.924;7.114;2023-02-01T08:47:20;2.60;99.90
22532;DHT22;11432;46.924;7.114;2023-02-01T08:49:46;2.70;99.90
22532;DHT22;11432;46.924;7.114;2023-02-01T08:52:12;2.60;99.90
22532;DHT22;11432;46.924;7.114;2023-02-01T08:54:37;2.60;99.90
22532;DHT22;11432;46.924;7.114;2023-02-01T08:57:05;2.60;1.00
22532;DHT22;11432;46.924;7.114;2023-02-01T08:59:31;2.60;99.90
22532;DHT22;11432;46.924;7.114;2023-02-01T09:01:56;2.70;99.90
22532;DHT22;11432;46.924;7.114;2023-02-01T09:04:22;2.80;99.90
22532;DHT22;11432;46.924;7.114;2023-02-01T09:06:47;2.80;99.90
22532;DHT22;11432;46.924;7.114;2023-02-01T09:09:13;2.80;99.90
22532;DHT22;11432;46.924;7.114;2023-02-01T09:11:38;2.90;50.00
22532;DHT22;11432;46.924;7.114;2023-02-01T09:14:04;3.00;15.10
22532;DHT22;11432;46.924;7.114;2023-02-01T09:16:30;3.00;1.00
22532;DHT22;11432;46.924;7.114;2023-02-01T09:18:55;3.00;1.00
22532;DHT22;11432;46.924;7.114;2023-02-01T09:21:21;3.10;1.00
22532;DHT22;11432;46.924;7.114;2023-02-01T09:23:46;3.10;99.90
22532;DHT22;11432;46.924;7.114;2023-02-01T09:26:14;3.20;99.90
22532;DHT22;11432;46.924;7.114;2023-02-01T09:28:39;3.20;99.90
22532;DHT22;11432;46.924;7.114;2023-02-01T09:31:05;3.30;99.90
22532;DHT22;11432;46.924;7.114;2023-02-01T09:33:31;3.40;1.00
22532;DHT22;11432;46.924;7.114;2023-02-01T09:36:02;3.40;1.00
22532;DHT22;11432;46.924;7.114;2023-02-01T09:38:28;3.30;1.00
22532;DHT22;11432;46.924;7.114;2023-02-01T09:40:55;3.40;99.90
22532;DHT22;11432;46.924;7.114;2023-02-01T09:43:53;3.40;95.00
22532;DHT22;11432;46.924;7.114;2023-02-01T09:46:26;3.40;99.90
22532;DHT22;11432;46.924;7.114;2023-02-01T09:48:55;3.50;20.30
22532;DHT22;11432;46.924;7.114;2023-02-01T09:51:36;3.70;1.00
22532;DHT22;11432;46.924;7.114;2023-02-01T09:54:08;3.90;60.40
22532;DHT22;11432;46.924;7.114;2023-02-01T10:01:40;4.20;99.90
22532;DHT22;11432;46.924;7.114;2023-02-01T10:04:09;4.10;1.00
22532;DHT22;11432;46.924;7.114;2023-02-01T10:06:39;4.10;1.00
22532;DHT22;11432;46.924;7.114;2023-02-01T10:21:04;4.40;99.90
22532;DHT22;11432;46.924;7.114;2023-02-01T10:23:53;4.50;1.00
22532;DHT22;11432;46.924;7.114;2023-02-01T10:26:25;4.70;1.00
22532;DHT22;11432;46.924;7.114;2023-02-01T10:28:58;4.60;99.10
22532;DHT22;11432;46.924;7.114;2023-02-01T10:31:27;4.80;1.00
22532;DHT22;11432;46.924;7.114;2023-02-01T10:34:06;5.20;99.90
22532;DHT22;11432;46.924;7.114;2023-02-01T10:36:35;5.90;83.70
22532;DHT22;11432;46.924;7.114;2023-02-01T10:39:04;6.80;1.00
22532;DHT22;11432;46.924;7.114;2023-02-01T10:41:34;7.60;99.90
22532;DHT22;11432;46.924;7.114;2023-02-01T10:44:02;7.40;99.90
22532;DHT22;11432;46.924;7.114;2023-02-01T10:46:29;8.00;1.00
22532;DHT22;11432;46.924;7.114;2023-02-01T10:48:57;7.40;1.00
22532;DHT22;11432;46.924;7.114;2023-02-01T10:51:29;7.40;1.00
22532;DHT22;11432;46.924;7.114;2023-02-01T10:54:03;7.50;1.00
22532;DHT22;11432;46.924;7.114;2023-02-01T10:56:37;7.00;1.30
22532;DHT22;11432;46.924;7.114;2023-02-01T10:59:05;6.70;56.00
22532;DHT22;11432;46.924;7.114;2023-02-01T11:01:36;6.30;99.90
22532;DHT22;11432;46.924;7.114;2023-02-01T11:04:09;6.20;99.90
22532;DHT22;11432;46.924;7.114;2023-02-01T11:06:46;6.00;99.90
22532;DHT22;11432;46.924;7.114;2023-02-01T11:09:23;6.00;99.90
22532;DHT22;11432;46.924;7.114;2023-02-01T11:17:28;6.10;1.00
22532;DHT22;11432;46.924;7.114;2023-02-01T11:20:14;6.00;1.00
22532;DHT22;11432;46.924;7.114;2023-02-01T11:22:31;6.30;1.00
22532;DHT22;11432;46.924;7.114;2023-02-01T11:24:59;6.20;1.00
22532;DHT22;11432;46.924;7.114;2023-02-01T11:27:25;6.00;1.00
22532;DHT22;11432;46.924;7.114;2023-02-01T11:29:54;6.10;1.00
22532;DHT22;11432;46.924;7.114;2023-02-01T11:32:22;6.50;99.90
22532;DHT22;11432;46.924;7.114;2023-02-01T11:35:06;6.50;99.90
22532;DHT22;11432;46.924;7.114;2023-02-01T11:37:41;6.90;65.00
22532;DHT22;11432;46.924;7.114;2023-02-01T11:42:57;7.60;99.90
22532;DHT22;11432;46.924;7.114;2023-02-01T11:45:27;9.00;99.90
22532;DHT22;11432;46.924;7.114;2023-02-01T11:47:54;9.90;1.00
22532;DHT22;11432;46.924;7.114;2023-02-01T11:50:49;10.70;1.00
22532;DHT22;11432;46.924;7.114;2023-02-01T11:56:22;12.00;1.00
22532;DHT22;11432;46.924;7.114;2023-02-01T11:59:12;12.00;1.00
22532;DHT22;11432;46.924;7.114;2023-02-01T12:35:58;10.20;1.00
22532;DHT22;11432;46.924;7.114;2023-02-01T12:38:41;10.60;1.00
22532;DHT22;11432;46.924;7.114;2023-02-01T12:46:48;12.70;1.00
22532;DHT22;11432;46.924;7.114;2023-02-01T12:49:30;11.20;1.00
22532;DHT22;11432;46.924;7.114;2023-02-01T12:52:04;11.50;1.00
22532;DHT22;11432;46.924;7.114;2023-02-01T12:54:34;11.40;1.00
22532;DHT22;11432;46.924;7.114;2023-02-01T12:57:03;11.70;1.00
22532;DHT22;11432;46.924;7.114;2023-02-01T12:59:38;12.30;1.00
22532;DHT22;11432;46.924;7.114;2023-02-01T13:02:42;11.30;1.00
22532;DHT22;11432;46.924;7.114;2023-02-01T13:08:08;13.00;1.00
22532;DHT22;11432;46.924;7.114;2023-02-01T13:16:17;12.80;1.00
22532;DHT22;11432;46.924;7.114;2023-02-01T13:18:51;13.60;1.00
22532;DHT22;11432;46.924;7.114;2023-02-01T13:21:25;13.60;1.00
22532;DHT22;11432;46.924;7.114;2023-02-01T13:23:52;14.20;1.00
22532;DHT22;11432;46.924;7.114;2023-02-01T13:26:18;14.50;1.00
22532;DHT22;11432;46.924;7.114;2023-02-01T13:28:57;13.40;1.00
22532;DHT22;11432;46.924;7.114;2023-02-01T13:42:53;13.40;1.00
22532;DHT22;11432;46.924;7.114;2023-02-01T13:45:24;14.10;1.00
22532;DHT22;11432;46.924;7.114;2023-02-01T13:47:53;14.40;1.00
22532;DHT22;11432;46.924;7.114;2023-02-01T13:50:30;13.60;99.90
22532;DHT22;11432;46.924;7.114;2023-02-01T13:55:54;13.50;99.90
22532;DHT22;11432;46.924;7.114;2023-02-01T13:58:21;13.80;99.90
22532;DHT22;11432;46.924;7.114;2023-02-01T14:00:49;13.20;99.90
22532;DHT22;11432;46.924;7.114;2023-02-01T14:03:19;12.20;1.00
22532;DHT22;11432;46.924;7.114;2023-02-01T14:08:14;11.50;1.00
22532;DHT22;11432;46.924;7.114;2023-02-01T14:10:55;9.90;1.00
22532;DHT22;11432;46.924;7.114;2023-02-01T14:21:31;8.20;1.00
22532;DHT22;11432;46.924;7.114;2023-02-01T14:26:47;8.40;1.00
22532;DHT22;11432;46.924;7.114;2023-02-01T14:31:52;8.30;1.00
22532;DHT22;11432;46.924;7.114;2023-02-01T14:37:24;8.10;1.00
22532;DHT22;11432;46.924;7.114;2023-02-01T14:40:02;8.30;1.00
22532;DHT22;11432;46.924;7.114;2023-02-01T14:42:50;8.30;1.00
22532;DHT22;11432;46.924;7.114;2023-02-01T14:47:52;8.60;1.00
22532;DHT22;11432;46.924;7.114;2023-02-01T14:55:53;7.80;1.00
22532;DHT22;11432;46.924;7.114;2023-02-01T14:58:51;7.80;1.00
22532;DHT22;11432;46.924;7.114;2023-02-01T15:01:27;7.70;1.00
22532;DHT22;11432;46.924;7.114;2023-02-01T15:09:16;7.50;1.00
22532;DHT22;11432;46.924;7.114;2023-02-01T15:14:45;7.30;1.00
22532;DHT22;11432;46.924;7.114;2023-02-01T15:17:25;7.20;1.00
22532;DHT22;11432;46.924;7.114;2023-02-01T15:19:59;7.10;1.00
22532;DHT22;11432;46.924;7.114;2023-02-01T15:22:26;7.10;1.00
22532;DHT22;11432;46.924;7.114;2023-02-01T15:24:57;7.20;1.00
22532;DHT22;11432;46.924;7.114;2023-02-01T15:27:23;7.10;1.00
22532;DHT22;11432;46.924;7.114;2023-02-01T15:29:49;7.10;1.00
22532;DHT22;11432;46.924;7.114;2023-02-01T15:32:33;7.20;1.00
22532;DHT22;11432;46.924;7.114;2023-02-01T15:35:00;7.20;1.00
22532;DHT22;11432;46.924;7.114;2023-02-01T15:37:27;7.20;1.00
22532;DHT22;11432;46.924;7.114;2023-02-01T15:40:26;7.10;1.00
22532;DHT22;11432;46.924;7.114;2023-02-01T15:42:53;7.10;1.00
22532;DHT22;11432;46.924;7.114;2023-02-01T15:45:28;7.10;1.00
22532;DHT22;11432;46.924;7.114;2023-02-01T15:47:57;7.00;1.00
22532;DHT22;11432;46.924;7.114;2023-02-01T15:50:23;6.90;1.00
22532;DHT22;11432;46.924;7.114;2023-02-01T15:52:54;6.80;1.00
22532;DHT22;11432;46.924;7.114;2023-02-01T15:57:58;6.70;1.00
22532;DHT22;11432;46.924;7.114;2023-02-01T16:00:26;6.70;1.00
22532;DHT22;11432;46.924;7.114;2023-02-01T16:03:01;6.70;1.00
22532;DHT22;11432;46.924;7.114;2023-02-01T16:05:38;6.60;1.00
22532;DHT22;11432;46.924;7.114;2023-02-01T16:10:45;6.60;1.00
22532;DHT22;11432;46.924;7.114;2023-02-01T16:13:11;6.60;1.00
22532;DHT22;11432;46.924;7.114;2023-02-01T16:15:38;6.60;1.00
22532;DHT22;11432;46.924;7.114;2023-02-01T16:18:04;6.60;1.00
22532;DHT22;11432;46.924;7.114;2023-02-01T16:20:30;6.60;1.00
22532;DHT22;11432;46.924;7.114;2023-02-01T16:22:56;6.50;1.00
22532;DHT22;11432;46.924;7.114;2023-02-01T16:25:21;6.50;1.00
22532;DHT22;11432;46.924;7.114;2023-02-01T16:27:47;6.40;1.00
22532;DHT22;11432;46.924;7.114;2023-02-01T16:30:13;6.40;1.00
22532;DHT22;11432;46.924;7.114;2023-02-01T16:32:39;6.30;1.00
22532;DHT22;11432;46.924;7.114;2023-02-01T16:35:12;6.30;1.00
22532;DHT22;11432;46.924;7.114;2023-02-01T16:37:39;6.30;1.00
22532;DHT22;11432;46.924;7.114;2023-02-01T16:40:05;6.30;1.00
22532;DHT22;11432;46.924;7.114;2023-02-01T16:42:31;6.20;1.00
22532;DHT22;11432;46.924;7.114;2023-02-01T16:44:57;6.20;1.00
22532;DHT22;11432;46.924;7.114;2023-02-01T16:47:22;6.10;1.00
22532;DHT22;11432;46.924;7.114;2023-02-01T16:49:49;6.10;1.00
22532;DHT22;11432;46.924;7.114;2023-02-01T16:52:18;6.00;1.00
22532;DHT22;11432;46.924;7.114;2023-02-01T16:54:45;5.90;1.00
22532;DHT22;11432;46.924;7.114;2023-02-01T16:57:12;5.90;1.00
22532;DHT22;11432;46.924;7.114;2023-02-01T16:59:39;6.00;1.00
22532;DHT22;11432;46.924;7.114;2023-02-01T17:02:06;5.90;1.00
22532;DHT22;11432;46.924;7.114;2023-02-01T17:04:31;5.90;1.00
22532;DHT22;11432;46.924;7.114;2023-02-01T17:06:57;5.90;1.00
22532;DHT22;11432;46.924;7.114;2023-02-01T17:09:23;5.80;1.00
22532;DHT22;11432;46.924;7.114;2023-02-01T17:11:50;5.80;1.00
22532;DHT22;11432;46.924;7.114;2023-02-01T17:14:18;5.80;1.00
22532;DHT22;11432;46.924;7.114;2023-02-01T17:16:46;5.80;1.00
22532;DHT22;11432;46.924;7.114;2023-02-01T17:19:15;5.80;1.00
22532;DHT22;11432;46.924;7.114;2023-02-01T17:21:48;5.80;1.00
22532;DHT22;11432;46.924;7.114;2023-02-01T17:24:17;5.90;1.00
22532;DHT22;11432;46.924;7.114;2023-02-01T17:26:44;6.00;1.00
22532;DHT22;11432;46.924;7.114;2023-02-01T17:29:10;6.00;1.00
22532;DHT22;11432;46.924;7.114;2023-02-01T17:31:38;6.00;1.00
22532;DHT22;11432;46.924;7.114;2023-02-01T17:34:05;6.10;1.00
22532;DHT22;11432;46.924;7.114;2023-02-01T17:36:30;6.10;1.00
22532;DHT22;11432;46.924;7.114;2023-02-01T17:38:56;6.00;1.00
22532;DHT22;11432;46.924;7.114;2023-02-01T17:41:21;6.00;1.00
22532;DHT22;11432;46.924;7.114;2023-02-01T17:43:48;5.90;1.00
22532;DHT22;11432;46.924;7.114;2023-02-01T17:46:16;5.90;1.00
22532;DHT22;11432;46.924;7.114;2023-02-01T17:48:43;5.90;1.00
22532;DHT22;11432;46.924;7.114;2023-02-01T17:51:17;5.90;1.00
22532;DHT22;11432;46.924;7.114;2023-02-01T17:53:43;5.90;1.00
22532;DHT22;11432;46.924;7.114;2023-02-01T17:56:17;5.90;1.00
22532;DHT22;11432;46.924;7.114;2023-02-01T17:58:43;5.90;99.90
22532;DHT22;11432;46.924;7.114;2023-02-01T18:01:27;5.80;1.00
22532;DHT22;11432;46.924;7.114;2023-02-01T18:03:53;5.70;1.00
22532;DHT22;11432;46.924;7.114;2023-02-01T18:06:22;5.70;8.50
22532;DHT22;11432;46.924;7.114;2023-02-01T18:08:48;5.70;1.00
22532;DHT22;11432;46.924;7.114;2023-02-01T18:11:19;5.70;1.00
22532;DHT22;11432;46.924;7.114;2023-02-01T18:13:45;5.70;1.00
22532;DHT22;11432;46.924;7.114;2023-02-01T18:16:18;5.70;1.00
22532;DHT22;11432;46.924;7.114;2023-02-01T18:18:45;5.60;99.90
22532;DHT22;11432;46.924;7.114;2023-02-01T18:21:10;5.70;99.90
22532;DHT22;11432;46.924;7.114;2023-02-01T18:23:36;5.70;1.00
22532;DHT22;11432;46.924;7.114;2023-02-01T18:26:02;5.70;1.00
22532;DHT22;11432;46.924;7.114;2023-02-01T18:28:28;5.70;99.90
22532;DHT22;11432;46.924;7.114;2023-02-01T18:30:54;5.70;1.00
22532;DHT22;11432;46.924;7.114;2023-02-01T18:33:21;5.70;1.00
22532;DHT22;11432;46.924;7.114;2023-02-01T18:35:47;5.70;1.00
22532;DHT22;11432;46.924;7.114;2023-02-01T18:38:13;5.70;11.20
22532;DHT22;11432;46.924;7.114;2023-02-01T18:40:59;5.70;99.90
22532;DHT22;11432;46.924;7.114;2023-02-01T18:43:25;5.60;1.00
22532;DHT22;11432;46.924;7.114;2023-02-01T18:45:51;5.60;99.90
22532;DHT22;11432;46.924;7.114;2023-02-01T18:48:17;5.50;99.90
22532;DHT22;11432;46.924;7.114;2023-02-01T18:50:45;5.50;99.90
22532;DHT22;11432;46.924;7.114;2023-02-01T18:55:38;5.50;99.90
22532;DHT22;11432;46.924;7.114;2023-02-01T18:58:04;5.50;99.90
22532;DHT22;11432;46.924;7.114;2023-02-01T19:00:34;5.50;99.90
22532;DHT22;11432;46.924;7.114;2023-02-01T19:03:00;5.50;99.90
22532;DHT22;11432;46.924;7.114;2023-02-01T19:05:26;5.50;99.90
22532;DHT22;11432;46.924;7.114;2023-02-01T19:07:52;5.50;99.90